Portada
METAR-TAF:

METAR-TAF

Aeroports :

Tri-City Airport

Parsons, Kansas, Estats Units d'Amèrica

latitud: 37-19-40N, longitud: 095-30-15W, altitud: 274 m

Observació

L'informe es va fer fa 32 minuts, a les 18:52 UTC
Vent 3 kt del Sud
Temperatura 32°C
Humitat 46%
Pressió 1024 hPa
Visibilitat: 16.1 km
Cel cobert a una alçada de 8000 ft

METAR: KPPF 201852Z AUTO 19003KT 10SM OVC080 32/19 A3025 RMK AO2 SLP232 T03170194

Hora: 14:24 (19:24 UTC)


TAF: manca

Observacions i pronòstics meteorològics de més de 4000 aeroports (METAR i TAF).

Les estacions disponibles són els punts grocs i vermells al mapa.

Posi el ratolí al punt desitjat per veure el nom de l'estació.

Feu clic per veure les observacions i els pronòstics meteorològics.

Per canviar el mapa: feu clic els botons verds amb una creu de color negre per apropar; al botó verd amb un guió per allunyar la imatge; o en les fletxes verdes per a mapes adjacents.


METAR-TAF: